Time;durP1;ratioP1;P1;durP2;ratioP2;P2;SDS_P1;SDS_P2;PMS_P1;PMS_P2;Temp;Humidity;BMP_temperature;BMP_pressure;BME280_temperature;BME280_humidity;BME280_pressure;Samples;Min_cycle;Max_cycle;Signal;HPM_P1;HPM_P2
2023/12/20 00:01:32;;;;;;;17.80;2.63;;;;;;;;;;4997677;28;20235;-59
2023/12/20 00:04:19;;;;;;;25.67;3.45;;;;;;;;;;4995826;28;20054;-58
2023/12/20 00:07:13;;;;;;;18.15;3.35;;;;;;;;;;4993611;28;20399;-59
2023/12/20 00:10:00;;;;;;;14.95;2.83;;;;;;;;;;4999384;28;20514;-57
2023/12/20 00:12:54;;;;;;;14.27;2.25;;;;;;;;;;4997178;28;20081;-63
2023/12/20 00:15:41;;;;;;;28.90;2.83;;;;;;;;;;4993588;28;20045;-63
2023/12/20 00:18:15;;;;;;;15.32;3.10;;;;;;;;;;4995042;28;20053;-63
2023/12/20 00:20:48;;;;;;;11.10;2.58;;;;;;;;;;5008742;28;20068;-63
2023/12/20 00:23:23;;;;;;;24.75;3.38;;;;;;;;;;5015612;28;20081;-63
2023/12/20 00:25:50;;;;;;;;;;;;;;;;;;5016115;28;20185;-55
2023/12/20 00:28:17;;;;;;;15.15;2.45;;;;;;;;;;5014903;28;19921;-53
2023/12/20 00:30:52;;;;;;;10.05;2.75;;;;;;;;;;5018488;28;20057;-57
2023/12/20 00:33:19;;;;;;;13.48;3.03;;;;;;;;;;5013822;28;20053;-57
2023/12/20 00:35:53;;;;;;;17.27;3.08;;;;;;;;;;5014775;28;20091;-55
2023/12/20 00:38:20;;;;;;;25.98;3.33;;;;;;;;;;5014309;28;20533;-57
2023/12/20 00:40:49;;;;;;;19.90;2.35;;;;;;;;;;5013429;28;20054;-49
2023/12/20 00:43:23;;;;;;;15.65;2.80;;;;;;;;;;5015756;28;20115;-47
2023/12/20 00:45:50;;;;;;;19.85;2.65;;;;;;;;;;5015456;28;20111;-49
2023/12/20 00:48:24;;;;;;;27.67;3.17;;;;;;;;;;5012490;28;20666;-53
2023/12/20 00:50:58;;;;;;;23.48;3.45;;;;;;;;;;5010770;28;20650;-60
2023/12/20 00:53:25;;;;;;;;;;;;;;;;;;5008670;28;20164;-59
2023/12/20 00:55:52;;;;;;;18.92;2.83;;;;;;;;;;5013531;28;19948;-59
2023/12/20 00:58:26;;;;;;;17.35;2.80;;;;;;;;;;5013208;28;22088;-60
2023/12/20 01:00:54;;;;;;;19.75;3.00;;;;;;;;;;5008255;28;20143;-60
2023/12/20 01:03:21;;;;;;;21.88;2.72;;;;;;;;;;5013148;28;20057;-59
2023/12/20 01:05:55;;;;;;;21.98;3.05;;;;;;;;;;5009650;28;20053;-59
2023/12/20 01:08:25;;;;;;;23.38;3.00;;;;;;;;;;5009919;28;20050;-59
2023/12/20 01:10:59;;;;;;;22.15;3.03;;;;;;;;;;4994446;28;20112;-70
2023/12/20 01:13:26;;;;;;;20.90;2.67;;;;;;;;;;5011444;28;20092;-71
2023/12/20 01:15:53;;;;;;;14.23;2.50;;;;;;;;;;5013999;28;20352;-70
2023/12/20 01:18:28;;;;;;;19.60;2.50;;;;;;;;;;5010665;28;20062;-72
2023/12/20 01:21:04;;;;;;;14.85;1.90;;;;;;;;;;5009666;28;20053;-58
2023/12/20 01:23:45;;;;;;;27.02;3.13;;;;;;;;;;5012052;28;20111;-57
2023/12/20 01:26:12;;;;;;;19.83;2.80;;;;;;;;;;5008706;28;20073;-56
2023/12/20 01:28:47;;;;;;;24.65;2.30;;;;;;;;;;5011690;28;20065;-55
2023/12/20 01:31:14;;;;;;;14.15;2.35;;;;;;;;;;5016405;28;20582;-54
2023/12/20 01:33:41;;;;;;;;;;;;;;;;;;5011414;28;20052;-56
2023/12/20 01:36:15;;;;;;;12.38;1.98;;;;;;;;;;5008480;28;19925;-55
2023/12/20 01:38:42;;;;;;;17.35;2.55;;;;;;;;;;5010999;28;20395;-51
2023/12/20 01:41:09;;;;;;;16.58;2.70;;;;;;;;;;5009707;28;20058;-51
2023/12/20 01:43:43;;;;;;;23.15;2.80;;;;;;;;;;5015887;28;20166;-50
2023/12/20 01:46:17;;;;;;;14.77;2.67;;;;;;;;;;5011967;28;20127;-51
2023/12/20 01:48:52;;;;;;;22.23;3.40;;;;;;;;;;5011567;28;20602;-58
2023/12/20 01:51:27;;;;;;;16.38;2.50;;;;;;;;;;5013725;28;20065;-60
2023/12/20 01:54:01;;;;;;;14.70;2.45;;;;;;;;;;5012551;28;20076;-61
2023/12/20 01:56:35;;;;;;;24.80;3.00;;;;;;;;;;5007786;28;20253;-62
2023/12/20 01:59:09;;;;;;;26.52;2.83;;;;;;;;;;5011855;28;20077;-61
2023/12/20 02:01:36;;;;;;;;;;;;;;;;;;5012276;28;20530;-60
2023/12/20 02:04:04;;;;;;;19.92;3.67;;;;;;;;;;5008610;28;19933;-61
2023/12/20 02:06:38;;;;;;;27.02;3.25;;;;;;;;;;5009731;28;20647;-55
2023/12/20 02:09:05;;;;;;;;;;;;;;;;;;5011248;28;20052;-56
2023/12/20 02:11:39;;;;;;;21.42;3.72;;;;;;;;;;5008507;28;20023;-56
2023/12/20 02:14:06;;;;;;;34.42;4.03;;;;;;;;;;5013371;28;20489;-56
2023/12/20 02:16:33;;;;;;;47.92;4.30;;;;;;;;;;5013190;28;20058;-50
2023/12/20 02:19:21;;;;;;;36.15;4.47;;;;;;;;;;5013550;28;20562;-62
2023/12/20 02:22:05;;;;;;;34.00;5.27;;;;;;;;;;5008910;28;20509;-61
2023/12/20 02:24:40;;;;;;;31.88;3.92;;;;;;;;;;5010461;28;20350;-62
2023/12/20 02:27:08;;;;;;;37.60;4.45;;;;;;;;;;5012374;28;20065;-62
2023/12/20 02:29:36;;;;;;;40.50;4.25;;;;;;;;;;5011134;28;20387;-62
2023/12/20 02:32:10;;;;;;;40.03;4.82;;;;;;;;;;5015511;28;20072;-62
2023/12/20 02:34:37;;;;;;;38.15;4.95;;;;;;;;;;5014312;28;20488;-62
2023/12/20 02:37:11;;;;;;;36.90;4.75;;;;;;;;;;4998450;28;20057;-62
2023/12/20 02:39:38;;;;;;;33.80;4.10;;;;;;;;;;5011148;28;20054;-62
2023/12/20 02:42:05;;;;;;;34.67;5.07;;;;;;;;;;5014011;28;20140;-62
2023/12/20 02:44:40;;;;;;;29.65;3.60;;;;;;;;;;5011189;28;20183;-58
2023/12/20 02:47:07;;;;;;;34.92;3.85;;;;;;;;;;5009368;28;20046;-63
2023/12/20 02:49:34;;;;;;;37.72;5.10;;;;;;;;;;5014456;28;20541;-60
2023/12/20 02:52:08;;;;;;;34.40;4.75;;;;;;;;;;5013507;28;20060;-60
2023/12/20 02:54:35;;;;;;;29.40;5.13;;;;;;;;;;5013884;28;20432;-59
2023/12/20 02:57:09;;;;;;;33.75;5.43;;;;;;;;;;5011225;28;20203;-59
2023/12/20 02:59:36;;;;;;;42.75;4.78;;;;;;;;;;5009663;28;20061;-59
2023/12/20 03:02:03;;;;;;;43.85;5.03;;;;;;;;;;5015350;28;20069;-59
2023/12/20 03:04:37;;;;;;;27.05;4.38;;;;;;;;;;5010098;28;20066;-68
2023/12/20 03:07:04;;;;;;;33.65;3.90;;;;;;;;;;5009329;28;20601;-68
2023/12/20 03:09:38;;;;;;;39.65;4.68;;;;;;;;;;5009559;28;20042;-69
2023/12/20 03:12:25;;;;;;;38.83;5.00;;;;;;;;;;5014142;28;20088;-62
2023/12/20 03:14:59;;;;;;;37.22;4.63;;;;;;;;;;5015153;28;20061;-70
2023/12/20 03:17:33;;;;;;;35.38;4.80;;;;;;;;;;5012428;28;20049;-59
2023/12/20 03:20:00;;;;;;;;;;;;;;;;;;5013964;28;20474;-60
2023/12/20 03:22:35;;;;;;;31.45;5.10;;;;;;;;;;5012135;28;19925;-59
2023/12/20 03:25:09;;;;;;;41.80;5.10;;;;;;;;;;5013683;28;20765;-62
2023/12/20 03:27:38;;;;;;;40.05;4.63;;;;;;;;;;5014993;28;20062;-59
2023/12/20 03:30:13;;;;;;;57.03;4.77;;;;;;;;;;5013405;28;20061;-59
2023/12/20 03:32:41;;;;;;;41.53;4.65;;;;;;;;;;5013970;28;20119;-57
2023/12/20 03:35:08;;;;;;;38.00;5.60;;;;;;;;;;5014189;28;20084;-58
2023/12/20 03:37:42;;;;;;;33.70;5.07;;;;;;;;;;5014304;28;20053;-58
2023/12/20 03:40:09;;;;;;;38.83;4.57;;;;;;;;;;5010356;28;20849;-54
2023/12/20 03:42:44;;;;;;;44.53;4.68;;;;;;;;;;5011402;28;20064;-58
2023/12/20 03:45:11;;;;;;;40.60;4.68;;;;;;;;;;5011157;28;20050;-62
2023/12/20 03:47:38;;;;;;;25.95;4.13;;;;;;;;;;5010002;28;20077;-63
2023/12/20 03:50:13;;;;;;;45.33;5.55;;;;;;;;;;5014802;28;20053;-62
2023/12/20 03:52:41;;;;;;;;;;;;;;;;;;5013214;28;20065;-62
2023/12/20 03:55:15;;;;;;;20.70;3.03;;;;;;;;;;5014470;28;20456;-62
2023/12/20 03:57:42;;;;;;;30.77;3.47;;;;;;;;;;5011899;28;20049;-62
2023/12/20 04:00:11;;;;;;;22.60;3.30;;;;;;;;;;5010758;28;20148;-56
2023/12/20 04:02:45;;;;;;;23.13;3.75;;;;;;;;;;5013267;28;20049;-56
2023/12/20 04:05:12;;;;;;;26.13;2.75;;;;;;;;;;5020552;28;20104;-53
2023/12/20 04:07:40;;;;;;;33.03;3.45;;;;;;;;;;5012022;28;20501;-54
2023/12/20 04:10:14;;;;;;;25.35;3.00;;;;;;;;;;5013207;28;20049;-69
2023/12/20 04:12:41;;;;;;;20.95;3.00;;;;;;;;;;5014981;28;20066;-54
2023/12/20 04:15:16;;;;;;;23.17;3.30;;;;;;;;;;5012438;28;20527;-52
2023/12/20 04:17:43;;;;;;;18.35;3.28;;;;;;;;;;5014275;28;20068;-50
2023/12/20 04:20:10;;;;;;;;;;;;;;;;;;5015416;28;20875;-53
2023/12/20 04:22:50;;;;;;;31.88;3.45;;;;;;;;;;5011481;28;19932;-52
2023/12/20 04:25:18;;;;;;;20.73;2.85;;;;;;;;;;5009905;28;21215;-54
2023/12/20 04:27:52;;;;;;;30.38;3.17;;;;;;;;;;5015093;28;20077;-62
2023/12/20 04:30:19;;;;;;;24.20;2.85;;;;;;;;;;5012130;28;20513;-64
2023/12/20 04:32:46;;;;;;;26.33;3.60;;;;;;;;;;5013839;28;20045;-62
2023/12/20 04:35:20;;;;;;;23.58;3.55;;;;;;;;;;5013536;28;20053;-62
2023/12/20 04:37:49;;;;;;;29.75;3.50;;;;;;;;;;5011947;28;20137;-52
2023/12/20 04:40:23;;;;;;;27.67;2.92;;;;;;;;;;5012342;28;20073;-51
2023/12/20 04:42:50;;;;;;;27.67;3.33;;;;;;;;;;5013294;28;20061;-55
2023/12/20 04:45:19;;;;;;;18.48;2.95;;;;;;;;;;5011658;28;20425;-53
2023/12/20 04:47:53;;;;;;;21.90;3.85;;;;;;;;;;4998363;28;20049;-48
2023/12/20 04:50:21;;;;;;;22.45;2.65;;;;;;;;;;5012893;28;20118;-51
2023/12/20 04:52:48;;;;;;;18.13;2.95;;;;;;;;;;5011753;28;20909;-50
2023/12/20 04:55:23;;;;;;;23.08;2.80;;;;;;;;;;5008445;28;20061;-54
2023/12/20 04:57:50;;;;;;;24.25;3.38;;;;;;;;;;5006054;28;20587;-53
2023/12/20 05:00:17;;;;;;;19.70;2.92;;;;;;;;;;5009242;28;20065;-51
2023/12/20 05:02:52;;;;;;;26.20;2.55;;;;;;;;;;5011608;28;20084;-51
2023/12/20 05:05:19;;;;;;;17.27;2.55;;;;;;;;;;5017680;28;20049;-52
2023/12/20 05:07:46;;;;;;;19.02;2.65;;;;;;;;;;5009444;28;20041;-54
2023/12/20 05:10:20;;;;;;;19.27;2.40;;;;;;;;;;5014092;28;20505;-59
2023/12/20 05:12:47;;;;;;;14.25;2.03;;;;;;;;;;5009680;28;20452;-59
2023/12/20 05:15:14;;;;;;;16.05;3.03;;;;;;;;;;5012907;28;20080;-59
2023/12/20 05:17:49;;;;;;;19.40;2.50;;;;;;;;;;5010804;28;20144;-60
2023/12/20 05:20:16;;;;;;;17.15;2.17;;;;;;;;;;5008745;28;20058;-60
2023/12/20 05:22:51;;;;;;;17.35;2.17;;;;;;;;;;5011435;28;20440;-59
2023/12/20 05:25:18;;;;;;;18.83;2.40;;;;;;;;;;5004837;28;20102;-59
2023/12/20 05:27:45;;;;;;;;;;;;;;;;;;5009059;28;20148;-59
2023/12/20 05:30:20;;;;;;;14.30;1.95;;;;;;;;;;5006748;28;20371;-60
2023/12/20 05:32:47;;;;;;;16.02;2.45;;;;;;;;;;5012108;28;20446;-59
2023/12/20 05:35:23;;;;;;;16.65;2.00;;;;;;;;;;5012116;28;20052;-63
2023/12/20 05:37:50;;;;;;;18.25;2.28;;;;;;;;;;5010230;28;20504;-59
2023/12/20 05:40:17;;;;;;;13.18;2.03;;;;;;;;;;5008418;28;20505;-59
2023/12/20 05:42:52;;;;;;;21.48;2.20;;;;;;;;;;4990346;28;20060;-60
2023/12/20 05:45:19;;;;;;;26.58;3.38;;;;;;;;;;5011481;28;20050;-60
2023/12/20 05:47:53;;;;;;;18.50;2.33;;;;;;;;;;5008265;28;20311;-60
2023/12/20 05:50:21;;;;;;;17.13;1.80;;;;;;;;;;5010514;28;20053;-59
2023/12/20 05:52:48;;;;;;;16.58;2.20;;;;;;;;;;5010249;28;20145;-60
2023/12/20 05:55:22;;;;;;;17.92;2.40;;;;;;;;;;5007976;28;20397;-50
2023/12/20 05:57:49;;;;;;;20.30;2.65;;;;;;;;;;5007371;28;20056;-50
2023/12/20 06:00:16;;;;;;;17.38;2.63;;;;;;;;;;5007495;28;20080;-50
2023/12/20 06:02:51;;;;;;;14.70;2.38;;;;;;;;;;5004279;28;20062;-54
2023/12/20 06:05:18;;;;;;;22.02;2.22;;;;;;;;;;5009951;28;20348;-62
2023/12/20 06:07:52;;;;;;;23.77;2.50;;;;;;;;;;5017410;28;20060;-63
2023/12/20 06:10:19;;;;;;;16.50;2.40;;;;;;;;;;5016533;28;20819;-63
2023/12/20 06:12:49;;;;;;;;;;;;;;;;;;5015524;28;20545;-63
2023/12/20 06:15:24;;;;;;;23.50;2.38;;;;;;;;;;5014821;28;20664;-63
2023/12/20 06:17:51;;;;;;;18.88;2.38;;;;;;;;;;5020769;28;20077;-62
2023/12/20 06:20:31;;;;;;;23.63;3.65;;;;;;;;;;5019804;28;20084;-63
2023/12/20 06:22:59;;;;;;;19.50;2.90;;;;;;;;;;5020110;28;20053;-62
2023/12/20 06:25:33;;;;;;;26.13;3.67;;;;;;;;;;5015691;28;20095;-62
2023/12/20 06:28:00;;;;;;;24.67;4.05;;;;;;;;;;5014817;28;20421;-63
2023/12/20 06:30:27;;;;;;;39.95;3.78;;;;;;;;;;5017500;28;20069;-62
2023/12/20 06:33:01;;;;;;;26.55;2.80;;;;;;;;;;5016288;28;20165;-61
2023/12/20 06:35:28;;;;;;;22.83;3.33;;;;;;;;;;5017747;28;20049;-59
2023/12/20 06:37:55;;;;;;;27.52;2.75;;;;;;;;;;5016831;28;20068;-60
2023/12/20 06:40:30;;;;;;;27.65;3.60;;;;;;;;;;5016502;28;20115;-59
2023/12/20 06:42:57;;;;;;;30.83;2.97;;;;;;;;;;5017289;28;20054;-60
2023/12/20 06:45:42;;;;;;;40.42;3.97;;;;;;;;;;5015266;28;20077;-59
2023/12/20 06:48:11;;;;;;;26.55;3.95;;;;;;;;;;5018229;28;20152;-60
2023/12/20 06:50:47;;;;;;;31.07;3.63;;;;;;;;;;5017134;28;20517;-70
2023/12/20 06:53:14;;;;;;;28.27;3.85;;;;;;;;;;5019403;28;20292;-69
2023/12/20 06:55:41;;;;;;;38.08;3.65;;;;;;;;;;5013384;28;20131;-70
2023/12/20 06:58:15;;;;;;;23.88;3.38;;;;;;;;;;5016042;28;20057;-69
2023/12/20 07:00:42;;;;;;;39.50;4.00;;;;;;;;;;5014443;28;20413;-61
2023/12/20 07:03:09;;;;;;;28.63;3.95;;;;;;;;;;5016334;28;20084;-51
2023/12/20 07:05:44;;;;;;;40.45;3.97;;;;;;;;;;5018680;28;20595;-69
2023/12/20 07:08:14;;;;;;;;;;;;;;;;;;5021663;28;20072;-69
2023/12/20 07:10:41;;;;;;;32.13;3.47;;;;;;;;;;5015428;28;20372;-69
2023/12/20 07:13:15;;;;;;;38.28;4.10;;;;;;;;;;5015283;28;20504;-69
2023/12/20 07:15:49;;;;;;;34.10;3.83;;;;;;;;;;5014389;28;20053;-70
2023/12/20 07:18:17;;;;;;;55.13;4.95;;;;;;;;;;5017253;28;20578;-69
2023/12/20 07:20:44;;;;;;;;;;;;;;;;;;5015307;28;20578;-56
2023/12/20 07:23:26;;;;;;;36.58;4.63;;;;;;;;;;4998616;28;19929;-56
2023/12/20 07:25:53;;;;;;;35.75;4.03;;;;;;;;;;4997370;28;20063;-54
2023/12/20 07:28:27;;;;;;;31.27;3.88;;;;;;;;;;4995963;28;20124;-67
2023/12/20 07:30:54;;;;;;;38.30;3.80;;;;;;;;;;4996253;28;20057;-55
2023/12/20 07:33:21;;;;;;;24.95;3.50;;;;;;;;;;4997104;28;20080;-51
2023/12/20 07:35:55;;;;;;;33.95;3.83;;;;;;;;;;5000309;28;20058;-53
2023/12/20 07:38:23;;;;;;;29.48;4.07;;;;;;;;;;5000693;28;20155;-54
2023/12/20 07:40:50;;;;;;;40.85;5.00;;;;;;;;;;4995251;28;20926;-53
2023/12/20 07:43:24;;;;;;;64.75;4.30;;;;;;;;;;4999128;28;20053;-53
2023/12/20 07:45:51;;;;;;;41.03;4.22;;;;;;;;;;4998244;28;20705;-53
2023/12/20 07:48:25;;;;;;;34.60;4.57;;;;;;;;;;4996177;28;20125;-63
2023/12/20 07:50:53;;;;;;;34.80;3.83;;;;;;;;;;5002992;28;20093;-62
2023/12/20 07:53:21;;;;;;;37.55;4.15;;;;;;;;;;4997283;28;20050;-62
2023/12/20 07:55:55;;;;;;;40.30;3.67;;;;;;;;;;4999605;28;20061;-62
2023/12/20 07:58:23;;;;;;;52.28;4.32;;;;;;;;;;4998422;28;20069;-60
2023/12/20 08:01:13;;;;;;;36.40;4.00;;;;;;;;;;4993062;28;20073;-62
2023/12/20 08:03:50;;;;;;;43.97;4.07;;;;;;;;;;4997298;28;20054;-62
2023/12/20 08:06:18;;;;;;;48.28;4.78;;;;;;;;;;4997224;28;20065;-63
2023/12/20 08:08:45;;;;;;;41.85;4.20;;;;;;;;;;5001124;28;20085;-62
2023/12/20 08:11:29;;;;;;;49.60;4.10;;;;;;;;;;5001944;28;20061;-63
2023/12/20 08:13:56;;;;;;;33.75;3.53;;;;;;;;;;4996822;28;20058;-63
2023/12/20 08:16:31;;;;;;;50.58;4.00;;;;;;;;;;4994984;28;20407;-51
2023/12/20 08:18:58;;;;;;;50.22;4.40;;;;;;;;;;4998950;28;20054;-54
2023/12/20 08:21:25;;;;;;;48.50;4.45;;;;;;;;;;5010707;28;20127;-52
2023/12/20 08:24:09;;;;;;;38.90;3.92;;;;;;;;;;5016803;28;20053;-50
2023/12/20 08:26:37;;;;;;;35.35;3.67;;;;;;;;;;5013789;28;20053;-58
2023/12/20 08:29:13;;;;;;;39.30;3.63;;;;;;;;;;5015240;28;20131;-68
2023/12/20 08:31:40;;;;;;;38.03;4.30;;;;;;;;;;5013420;28;20135;-69
2023/12/20 08:34:14;;;;;;;41.92;3.72;;;;;;;;;;5011350;28;20128;-69
2023/12/20 08:36:42;;;;;;;44.63;4.53;;;;;;;;;;4994619;28;20094;-69
2023/12/20 08:39:09;;;;;;;41.70;3.78;;;;;;;;;;5015383;28;20157;-69
2023/12/20 08:41:43;;;;;;;31.65;3.30;;;;;;;;;;5014114;28;20049;-69
2023/12/20 08:44:10;;;;;;;41.85;4.03;;;;;;;;;;5016907;28;20402;-59
2023/12/20 08:46:44;;;;;;;39.70;3.95;;;;;;;;;;5013779;28;20071;-59
2023/12/20 08:49:11;;;;;;;32.45;3.58;;;;;;;;;;5013628;28;20057;-57
2023/12/20 08:51:40;;;;;;;40.45;3.90;;;;;;;;;;5014948;28;20046;-59
2023/12/20 08:54:16;;;;;;;44.88;5.40;;;;;;;;;;5015546;28;20321;-52
2023/12/20 08:56:44;;;;;;;30.80;3.70;;;;;;;;;;5012005;28;20045;-55
2023/12/20 08:59:11;;;;;;;32.15;3.60;;;;;;;;;;5015081;28;20755;-52
2023/12/20 09:01:48;;;;;;;28.30;3.72;;;;;;;;;;5010671;28;20049;-51
2023/12/20 09:04:15;;;;;;;46.90;4.53;;;;;;;;;;5012070;28;20058;-52
2023/12/20 09:06:49;;;;;;;34.03;3.70;;;;;;;;;;5014506;28;20085;-50
2023/12/20 09:09:16;;;;;;;;;;;;;;;;;;5015945;28;20053;-51
2023/12/20 09:11:46;;;;;;;33.00;4.32;;;;;;;;;;5012480;28;20400;-51
2023/12/20 09:14:20;;;;;;;38.13;4.45;;;;;;;;;;5014698;28;20538;-50
2023/12/20 09:16:47;;;;;;;31.38;3.97;;;;;;;;;;5013310;28;20054;-50
2023/12/20 09:19:14;;;;;;;43.08;4.82;;;;;;;;;;5013687;28;20611;-52
2023/12/20 09:21:55;;;;;;;36.05;3.65;;;;;;;;;;5013337;28;20445;-51
2023/12/20 09:24:23;;;;;;;39.15;5.22;;;;;;;;;;5013823;28;20057;-59
2023/12/20 09:26:57;;;;;;;43.65;5.07;;;;;;;;;;5016326;28;20473;-53
2023/12/20 09:29:24;;;;;;;34.13;4.07;;;;;;;;;;5014536;28;20068;-49
2023/12/20 09:31:51;;;;;;;41.85;4.47;;;;;;;;;;5013443;28;20053;-49
2023/12/20 09:34:26;;;;;;;29.98;4.20;;;;;;;;;;5014482;28;20140;-54
2023/12/20 09:36:54;;;;;;;47.03;4.35;;;;;;;;;;5012435;28;20050;-54
2023/12/20 09:39:21;;;;;;;44.40;5.05;;;;;;;;;;5016738;28;20406;-53
2023/12/20 09:42:03;;;;;;;48.65;4.85;;;;;;;;;;5021248;28;20265;-58
2023/12/20 09:44:31;;;;;;;57.15;5.32;;;;;;;;;;5017037;28;20424;-58
2023/12/20 09:47:05;;;;;;;39.47;5.40;;;;;;;;;;5017846;28;20119;-54
2023/12/20 09:49:33;;;;;;;47.42;5.57;;;;;;;;;;5017608;28;20053;-59
2023/12/20 09:52:01;;;;;;;50.40;5.15;;;;;;;;;;5016200;28;20135;-63
2023/12/20 09:54:35;;;;;;;46.90;5.57;;;;;;;;;;5015427;28;20736;-60
2023/12/20 09:57:02;;;;;;;;;;;;;;;;;;5021212;28;20245;-60
2023/12/20 09:59:36;;;;;;;60.88;6.20;;;;;;;;;;5018202;28;20377;-60
2023/12/20 10:02:04;;;;;;;46.15;4.82;;;;;;;;;;5014159;28;20477;-60
2023/12/20 10:04:38;;;;;;;58.58;5.45;;;;;;;;;;5014600;28;20050;-60
2023/12/20 10:07:12;;;;;;;63.97;5.82;;;;;;;;;;5018437;28;20052;-60
2023/12/20 10:09:48;;;;;;;50.97;6.00;;;;;;;;;;5016811;28;20057;-52
2023/12/20 10:12:15;;;;;;;45.28;6.00;;;;;;;;;;5019119;28;20082;-50
2023/12/20 10:14:42;;;;;;;44.45;5.38;;;;;;;;;;5020591;28;20065;-49
2023/12/20 10:17:16;;;;;;;48.60;6.13;;;;;;;;;;5017219;28;20053;-50
2023/12/20 10:19:43;;;;;;;;;;;;;;;;;;5017828;28;20482;-68
2023/12/20 10:22:23;;;;;;;41.92;6.35;;;;;;;;;;5002487;28;20010;-59
2023/12/20 10:24:51;;;;;;;57.85;6.03;;;;;;;;;;4983046;28;20053;-63
2023/12/20 10:27:25;;;;;;;59.15;7.30;;;;;;;;;;5002193;28;20096;-63
2023/12/20 10:30:00;;;;;;;46.13;6.47;;;;;;;;;;5002706;28;20054;-63
2023/12/20 10:32:34;;;;;;;40.33;6.57;;;;;;;;;;5000478;28;20065;-62
2023/12/20 10:35:09;;;;;;;39.83;7.70;;;;;;;;;;4994321;28;20042;-63
2023/12/20 10:37:37;;;;;;;48.38;7.03;;;;;;;;;;5001885;28;20062;-59
2023/12/20 10:40:06;;;;;;;45.05;6.65;;;;;;;;;;5000212;28;20049;-59
2023/12/20 10:42:40;;;;;;;52.67;8.07;;;;;;;;;;5002830;28;20050;-59
2023/12/20 10:45:08;;;;;;;49.88;7.32;;;;;;;;;;5002863;28;20417;-60
2023/12/20 10:47:42;;;;;;;47.60;7.43;;;;;;;;;;4999142;28;20057;-62
2023/12/20 10:50:10;;;;;;;40.30;6.72;;;;;;;;;;4998600;28;20155;-60
2023/12/20 10:52:44;;;;;;;40.13;7.20;;;;;;;;;;4999522;28;20128;-53
2023/12/20 10:55:12;;;;;;;47.67;7.78;;;;;;;;;;4996337;28;20116;-52
2023/12/20 10:57:39;;;;;;;43.75;7.20;;;;;;;;;;5000266;28;20058;-54
2023/12/20 11:00:15;;;;;;;37.03;7.43;;;;;;;;;;5003460;28;20082;-51
2023/12/20 11:02:43;;;;;;;44.85;7.93;;;;;;;;;;4998463;28;20050;-52
2023/12/20 11:05:23;;;;;;;36.08;7.40;;;;;;;;;;4995596;28;20057;-51
2023/12/20 11:07:59;;;;;;;40.17;8.25;;;;;;;;;;4999575;28;20050;-59
2023/12/20 11:10:56;;;;;;;40.10;8.02;;;;;;;;;;4997314;28;20518;-58
2023/12/20 11:13:27;;;;;;;33.20;8.25;;;;;;;;;;4998605;28;20058;-59
2023/12/20 11:16:01;;;;;;;40.55;8.05;;;;;;;;;;4995710;28;20061;-58
2023/12/20 11:18:42;;;;;;;31.77;8.13;;;;;;;;;;4998648;28;20581;-63
2023/12/20 11:21:11;;;;;;;32.97;7.65;;;;;;;;;;5007517;28;20398;-61
2023/12/20 11:23:45;;;;;;;29.98;7.53;;;;;;;;;;5019008;28;20528;-60
2023/12/20 11:26:16;;;;;;;25.90;7.07;;;;;;;;;;5014977;28;20467;-61
2023/12/20 11:28:50;;;;;;;23.35;5.90;;;;;;;;;;5015804;28;20099;-60
2023/12/20 11:31:17;;;;;;;28.52;7.60;;;;;;;;;;5016250;28;20491;-61
2023/12/20 11:33:56;;;;;;;33.22;8.07;;;;;;;;;;5016594;28;20050;-61
2023/12/20 11:36:26;;;;;;;22.05;7.22;;;;;;;;;;5019976;28;20623;-59
2023/12/20 11:39:00;;;;;;;27.88;8.07;;;;;;;;;;5013881;28;20045;-58
2023/12/20 11:41:27;;;;;;;;;;;;;;;;;;5015575;28;20100;-58
2023/12/20 11:43:54;;;;;;;28.15;7.80;;;;;;;;;;5001589;28;19933;-58
2023/12/20 11:46:28;;;;;;;37.92;7.70;;;;;;;;;;5014322;28;20528;-53
2023/12/20 11:48:55;;;;;;;24.08;7.38;;;;;;;;;;5015844;28;20077;-62
2023/12/20 11:51:22;;;;;;;;;;;;;;;;;;5017664;28;20057;-62
2023/12/20 11:53:56;;;;;;;25.98;7.32;;;;;;;;;;5017577;28;19931;-62
2023/12/20 11:56:23;;;;;;;33.70;8.75;;;;;;;;;;5016240;28;20097;-62
2023/12/20 11:58:50;;;;;;;;;;;;;;;;;;5013129;28;20119;-62
2023/12/20 12:01:32;;;;;;;24.50;6.88;;;;;;;;;;5010945;28;20381;-62
2023/12/20 12:04:07;;;;;;;24.92;7.22;;;;;;;;;;5013400;28;20134;-51
2023/12/20 12:06:41;;;;;;;20.38;7.10;;;;;;;;;;5016271;28;20049;-49
2023/12/20 12:09:08;;;;;;;29.25;7.30;;;;;;;;;;5015084;28;20049;-50
2023/12/20 12:11:36;;;;;;;20.52;6.60;;;;;;;;;;5013563;28;20077;-50
2023/12/20 12:14:10;;;;;;;24.70;7.55;;;;;;;;;;5016601;28;20046;-59
2023/12/20 12:16:43;;;;;;;18.48;7.68;;;;;;;;;;5012535;28;20509;-62
2023/12/20 12:19:24;;;;;;;30.67;7.25;;;;;;;;;;5016873;28;20147;-63
2023/12/20 12:21:52;;;;;;;24.48;7.07;;;;;;;;;;5007097;28;20069;-62
2023/12/20 12:24:26;;;;;;;21.63;7.63;;;;;;;;;;4980403;28;20065;-63
2023/12/20 12:26:53;;;;;;;30.20;7.90;;;;;;;;;;5000547;28;20400;-62
2023/12/20 12:29:20;;;;;;;29.50;8.23;;;;;;;;;;4998905;28;21186;-63
2023/12/20 12:31:54;;;;;;;23.95;7.10;;;;;;;;;;5000157;28;20057;-54
2023/12/20 12:34:21;;;;;;;28.45;8.50;;;;;;;;;;4998221;28;20053;-48
2023/12/20 12:36:55;;;;;;;25.92;7.28;;;;;;;;;;4999155;28;20057;-48
2023/12/20 12:39:25;;;;;;;26.15;7.50;;;;;;;;;;5001904;28;20089;-48
2023/12/20 12:41:52;;;;;;;21.20;6.82;;;;;;;;;;4998770;28;21368;-53
2023/12/20 12:44:27;;;;;;;29.38;7.85;;;;;;;;;;4998392;28;20521;-54
2023/12/20 12:46:54;;;;;;;25.10;7.60;;;;;;;;;;4998237;28;20050;-61
2023/12/20 12:49:29;;;;;;;18.52;6.65;;;;;;;;;;4981758;28;20056;-60
2023/12/20 12:51:58;;;;;;;17.48;6.68;;;;;;;;;;4997500;28;20061;-60
2023/12/20 12:54:32;;;;;;;29.40;7.72;;;;;;;;;;4999714;28;20283;-60
2023/12/20 12:56:59;;;;;;;28.88;7.70;;;;;;;;;;4999112;28;20120;-60
2023/12/20 12:59:27;;;;;;;20.77;8.07;;;;;;;;;;4994108;28;20061;-60
2023/12/20 13:02:04;;;;;;;22.87;7.70;;;;;;;;;;4998717;28;20065;-59
2023/12/20 13:04:31;;;;;;;;;;;;;;;;;;4995746;28;20179;-59
2023/12/20 13:06:59;;;;;;;29.08;7.53;;;;;;;;;;4998248;28;19925;-59
2023/12/20 13:09:33;;;;;;;23.67;7.05;;;;;;;;;;4996770;28;20073;-59
2023/12/20 13:12:03;;;;;;;20.88;6.43;;;;;;;;;;4997259;28;20043;-62
2023/12/20 13:14:37;;;;;;;22.58;6.57;;;;;;;;;;4995724;28;20096;-60
2023/12/20 13:17:04;;;;;;;;;;;;;;;;;;4996895;28;20140;-59
2023/12/20 13:19:32;;;;;;;20.38;7.38;;;;;;;;;;4998329;28;19922;-59
2023/12/20 13:22:12;;;;;;;27.77;7.22;;;;;;;;;;4996243;28;20785;-59
2023/12/20 13:24:40;;;;;;;24.88;6.72;;;;;;;;;;4997323;28;20064;-59
2023/12/20 13:27:14;;;;;;;26.42;6.88;;;;;;;;;;4997667;28;20116;-59
2023/12/20 13:29:41;;;;;;;19.83;6.93;;;;;;;;;;4994178;28;20050;-63
2023/12/20 13:32:08;;;;;;;24.77;7.57;;;;;;;;;;4993025;28;20490;-63
2023/12/20 13:34:43;;;;;;;22.05;6.90;;;;;;;;;;4997344;28;20104;-63
2023/12/20 13:37:10;;;;;;;30.42;8.07;;;;;;;;;;4999773;28;20133;-63
2023/12/20 13:39:45;;;;;;;18.13;6.88;;;;;;;;;;4999310;28;20154;-62
2023/12/20 13:42:13;;;;;;;23.60;7.25;;;;;;;;;;4995457;28;20058;-59
2023/12/20 13:44:40;;;;;;;22.95;7.22;;;;;;;;;;4992782;28;20136;-59
2023/12/20 13:47:14;;;;;;;25.38;8.07;;;;;;;;;;4995247;28;20584;-59
2023/12/20 13:49:41;;;;;;;14.50;7.00;;;;;;;;;;4995364;28;20127;-58
2023/12/20 13:52:16;;;;;;;16.55;6.70;;;;;;;;;;4997037;28;20065;-59
2023/12/20 13:54:47;;;;;;;33.05;7.65;;;;;;;;;;4998253;28;20108;-59
2023/12/20 13:57:22;;;;;;;24.23;7.60;;;;;;;;;;5000934;28;20054;-59
2023/12/20 14:00:14;;;;;;;27.92;8.45;;;;;;;;;;4996134;28;20046;-59
2023/12/20 14:02:48;;;;;;;23.83;6.70;;;;;;;;;;4994828;28;20060;-59
2023/12/20 14:05:17;;;;;;;28.60;8.30;;;;;;;;;;4998601;28;20611;-59
2023/12/20 14:07:46;;;;;;;16.83;7.20;;;;;;;;;;4993639;28;20065;-59
2023/12/20 14:10:20;;;;;;;24.45;9.05;;;;;;;;;;4994709;28;20152;-63
2023/12/20 14:12:47;;;;;;;36.28;8.80;;;;;;;;;;5002237;28;20053;-63
2023/12/20 14:15:21;;;;;;;26.85;7.80;;;;;;;;;;4999451;28;20062;-63
2023/12/20 14:17:48;;;;;;;24.60;7.78;;;;;;;;;;4992834;28;20084;-63
2023/12/20 14:20:16;;;;;;;23.50;8.00;;;;;;;;;;4994609;28;20571;-62
2023/12/20 14:22:56;;;;;;;25.52;7.90;;;;;;;;;;4997029;28;20103;-63
2023/12/20 14:25:34;;;;;;;31.52;8.35;;;;;;;;;;4996152;28;20058;-56
2023/12/20 14:28:15;;;;;;;25.63;7.80;;;;;;;;;;4997530;28;20521;-56
2023/12/20 14:30:49;;;;;;;27.98;7.88;;;;;;;;;;4985807;28;20126;-52
2023/12/20 14:33:19;;;;;;;25.95;8.10;;;;;;;;;;5000962;28;20068;-57
2023/12/20 14:35:47;;;;;;;23.05;8.23;;;;;;;;;;4993551;28;20501;-58
2023/12/20 14:38:21;;;;;;;22.75;8.02;;;;;;;;;;4999293;28;20058;-59
2023/12/20 14:40:48;;;;;;;34.00;8.82;;;;;;;;;;4996831;28;20050;-61
2023/12/20 14:43:16;;;;;;;26.33;8.15;;;;;;;;;;4996143;28;20065;-60
2023/12/20 14:45:50;;;;;;;25.50;7.70;;;;;;;;;;4999552;28;20058;-61
2023/12/20 14:48:27;;;;;;;24.50;7.95;;;;;;;;;;4979681;28;20127;-60
2023/12/20 14:50:54;;;;;;;26.73;8.13;;;;;;;;;;4996600;28;20535;-60
2023/12/20 14:53:21;;;;;;;26.67;7.50;;;;;;;;;;4996896;28;20123;-60
2023/12/20 14:55:56;;;;;;;29.38;8.10;;;;;;;;;;4995973;28;20502;-60
2023/12/20 14:58:23;;;;;;;35.05;8.98;;;;;;;;;;4996414;28;20066;-60
2023/12/20 15:00:57;;;;;;;24.67;7.93;;;;;;;;;;4997482;28;20061;-60